Time;durP1;ratioP1;P1;durP2;ratioP2;P2;SDS_P1;SDS_P2;PMS_P1;PMS_P2;Temp;Humidity;BMP_temperature;BMP_pressure;BME280_temperature;BME280_humidity;BME280_pressure;Samples;Min_cycle;Max_cycle;Signal;HPM_P1;HPM_P2
2021/07/13 00:00:18;;;;;;;3.23;3.03;;;29.70;61.00;;;;;;5144599;27;20481;-28
2021/07/13 00:02:49;;;;;;;2.80;2.60;;;29.60;60.90;;;;;;5144781;27;20495;-24
2021/07/13 00:05:22;;;;;;;2.40;2.20;;;29.60;62.00;;;;;;5145044;27;20457;-28
2021/07/13 00:07:54;;;;;;;2.87;2.67;;;29.70;63.30;;;;;;5144766;27;20469;-26
2021/07/13 00:10:27;;;;;;;2.57;2.37;;;29.60;61.90;;;;;;5144444;27;20462;-25
2021/07/13 00:13:00;;;;;;;3.53;2.43;;;29.60;62.70;;;;;;5143684;27;20458;-26
2021/07/13 00:15:33;;;;;;;4.40;3.03;;;29.50;63.00;;;;;;5137482;27;20493;-26
2021/07/13 00:18:05;;;;;;;2.70;2.50;;;29.40;63.40;;;;;;5142053;27;20481;-27
2021/07/13 00:20:38;;;;;;;3.10;2.90;;;29.30;62.00;;;;;;5143576;27;20446;-27
2021/07/13 00:23:09;;;;;;;2.53;2.33;;;29.20;63.70;;;;;;5143197;27;20453;-25
2021/07/13 00:25:40;;;;;;;2.60;2.40;;;29.10;63.90;;;;;;5143695;27;20441;-24
2021/07/13 00:28:11;;;;;;;2.50;2.30;;;29.00;64.60;;;;;;5141225;27;20451;-26
2021/07/13 00:30:42;;;;;;;2.70;2.50;;;29.00;63.30;;;;;;5134000;27;20437;-26
2021/07/13 00:33:14;;;;;;;2.47;2.27;;;28.90;63.80;;;;;;5141297;27;20515;-26
2021/07/13 00:35:47;;;;;;;3.07;2.77;;;28.90;63.40;;;;;;5141850;27;20491;-27
2021/07/13 00:38:18;;;;;;;3.10;2.90;;;28.80;63.90;;;;;;5144055;27;20455;-27
2021/07/13 00:40:49;;;;;;;4.20;2.40;;;28.90;63.40;;;;;;5143540;27;20454;-31
2021/07/13 00:43:20;;;;;;;6.43;5.40;;;28.80;63.50;;;;;;5142972;27;20446;-26
2021/07/13 00:45:51;;;;;;;2.60;2.30;;;28.70;64.10;;;;;;5143644;27;20479;-27
2021/07/13 00:48:23;;;;;;;3.50;2.90;;;28.70;64.50;;;;;;5142740;27;20456;-27
2021/07/13 00:50:59;;;;;;;2.87;2.57;;;28.60;65.80;;;;;;5144731;27;20452;-26
2021/07/13 00:53:31;;;;;;;2.73;2.50;;;28.60;65.20;;;;;;5143468;27;20434;-27
2021/07/13 00:56:02;;;;;;;3.53;2.67;;;28.50;65.90;;;;;;5144253;27;20618;-28
2021/07/13 00:58:33;;;;;;;2.80;2.60;;;28.60;64.90;;;;;;5143387;27;20449;-28
2021/07/13 01:01:04;;;;;;;2.60;2.40;;;28.60;64.70;;;;;;5143426;27;20876;-25
2021/07/13 01:03:36;;;;;;;2.90;2.60;;;28.50;64.30;;;;;;5143128;27;20451;-26
2021/07/13 01:06:11;;;;;;;4.63;2.97;;;28.50;64.00;;;;;;5134461;28;20463;-27
2021/07/13 01:08:52;;;;;;;3.00;2.80;;;28.50;63.70;;;;;;5144328;27;20460;-27
2021/07/13 01:11:28;;;;;;;3.53;3.10;;;28.40;63.20;;;;;;5127968;28;20516;-26
2021/07/13 01:14:04;;;;;;;2.67;2.47;;;28.40;63.60;;;;;;5142916;27;20523;-29
2021/07/13 01:16:42;;;;;;;3.13;2.93;;;28.30;62.40;;;;;;5143784;27;20483;-26
2021/07/13 01:19:31;;;;;;;3.43;2.70;;;28.20;62.50;;;;;;5143664;28;20451;-29
2021/07/13 01:22:06;;;;;;;2.73;2.37;;;28.20;63.00;;;;;;5142922;28;20477;-28
2021/07/13 01:24:56;;;;;;;3.40;2.87;;;28.30;62.70;;;;;;5143854;27;20532;-28
2021/07/13 01:27:39;;;;;;;2.67;2.47;;;28.20;63.70;;;;;;5142785;28;20452;-31
2021/07/13 01:30:15;;;;;;;2.70;2.50;;;28.10;64.40;;;;;;5145490;27;20471;-31
2021/07/13 01:32:51;;;;;;;2.20;2.00;;;28.00;64.20;;;;;;5147429;27;20956;-24
2021/07/13 01:35:26;;;;;;;3.10;2.90;;;28.00;65.40;;;;;;5148155;27;20546;-27
2021/07/13 01:37:59;;;;;;;2.70;2.50;;;28.00;65.20;;;;;;5143131;27;20522;-27
2021/07/13 01:40:31;;;;;;;2.63;2.43;;;28.00;65.00;;;;;;5145924;27;20454;-26
2021/07/13 01:43:04;;;;;;;2.90;2.57;;;28.00;65.80;;;;;;5146288;27;20450;-25
2021/07/13 01:45:37;;;;;;;2.80;2.47;;;27.80;66.50;;;;;;5147065;27;20547;-26
2021/07/13 01:48:11;;;;;;;2.83;2.57;;;27.90;66.30;;;;;;5147196;27;20440;-24
2021/07/13 01:50:49;;;;;;;2.93;2.73;;;27.80;66.50;;;;;;5147372;27;20471;-28
2021/07/13 01:53:20;;;;;;;3.00;2.70;;;27.70;67.60;;;;;;5147053;27;20863;-27
2021/07/13 01:55:54;;;;;;;2.70;2.50;;;27.60;67.60;;;;;;5147049;27;20447;-31
2021/07/13 01:58:26;;;;;;;2.97;2.67;;;27.50;68.60;;;;;;5146076;27;20482;-27
2021/07/13 02:01:04;;;;;;;2.67;2.47;;;27.60;68.30;;;;;;5147088;27;20538;-25
2021/07/13 02:03:36;;;;;;;3.43;2.80;;;27.50;68.40;;;;;;5147384;27;20439;-26
2021/07/13 02:06:07;;;;;;;3.60;2.50;;;27.50;68.90;;;;;;5146831;27;20435;-26
2021/07/13 02:08:40;;;;;;;4.10;2.40;;;27.40;70.00;;;;;;5143428;27;20482;-26
2021/07/13 02:11:12;;;;;;;3.33;2.60;;;27.30;69.90;;;;;;5146947;27;20458;-26
2021/07/13 02:13:43;;;;;;;3.07;2.77;;;27.20;70.90;;;;;;5145621;27;20537;-24
2021/07/13 02:16:16;;;;;;;3.27;2.77;;;27.20;71.50;;;;;;5146146;27;20450;-25
2021/07/13 02:18:47;;;;;;;3.53;2.57;;;27.10;72.60;;;;;;5145995;27;20442;-24
2021/07/13 02:21:18;;;;;;;2.67;2.40;;;27.10;72.60;;;;;;5146899;27;20454;-25
2021/07/13 02:23:49;;;;;;;3.17;2.40;;;27.00;73.10;;;;;;5146380;27;20470;-27
2021/07/13 02:26:30;;;;;;;5.33;3.80;;;26.90;72.50;;;;;;5146685;27;20495;-27
2021/07/13 02:29:10;;;;;;;4.20;3.80;;;26.80;74.00;;;;;;5144982;27;20791;-24
2021/07/13 02:31:46;;;;;;;3.07;2.77;;;26.70;73.50;;;;;;5146749;27;20470;-27
2021/07/13 02:34:24;;;;;;;3.17;2.87;;;26.70;74.00;;;;;;5145782;27;20444;-30
2021/07/13 02:36:59;;;;;;;4.77;2.80;;;26.70;73.60;;;;;;5146539;27;20504;-27
2021/07/13 02:39:33;;;;;;;3.03;2.63;;;26.60;73.50;;;;;;5143741;27;20442;-24
2021/07/13 02:42:06;;;;;;;2.90;2.60;;;26.50;73.80;;;;;;5146103;27;20441;-29
2021/07/13 02:44:38;;;;;;;2.80;2.60;;;26.40;73.20;;;;;;5145314;27;20453;-26
2021/07/13 02:47:30;;;;;;;4.17;2.70;;;26.30;73.60;;;;;;5143870;27;20489;-28
2021/07/13 02:50:03;;;;;;;3.73;2.20;;;26.30;74.60;;;;;;5145707;27;20915;-27
2021/07/13 02:52:35;;;;;;;2.70;2.20;;;26.30;74.60;;;;;;5145581;27;20490;-27
2021/07/13 02:55:10;;;;;;;2.73;2.53;;;26.20;72.50;;;;;;5146474;27;20433;-25
2021/07/13 02:57:41;;;;;;;3.33;2.83;;;26.20;72.50;;;;;;5144843;27;21428;-25
2021/07/13 03:00:15;;;;;;;2.60;2.40;;;26.00;71.40;;;;;;5145206;27;20488;-26
2021/07/13 03:02:48;;;;;;;5.30;2.40;;;26.00;68.70;;;;;;5145508;27;20468;-24
2021/07/13 03:05:21;;;;;;;3.70;2.57;;;25.90;67.60;;;;;;5146534;27;20858;-26
2021/07/13 03:07:54;;;;;;;2.27;2.13;;;25.70;68.40;;;;;;5146613;27;20804;-26
2021/07/13 03:10:26;;;;;;;3.47;3.17;;;25.60;69.90;;;;;;5140243;27;20498;-28
2021/07/13 03:12:58;;;;;;;4.57;2.60;;;25.50;71.30;;;;;;5141484;27;20441;-24
2021/07/13 03:15:32;;;;;;;2.77;2.17;;;25.40;73.10;;;;;;5145922;27;20510;-24
2021/07/13 03:18:05;;;;;;;3.70;2.50;;;25.30;73.80;;;;;;5144559;27;20528;-25
2021/07/13 03:20:37;;;;;;;4.53;2.40;;;25.10;73.60;;;;;;5145140;27;20451;-29
2021/07/13 03:23:22;;;;;;;3.93;2.00;;;25.00;75.40;;;;;;5143965;27;20497;-23
2021/07/13 03:25:54;;;;;;;3.10;2.50;;;24.80;75.30;;;;;;5145514;27;20441;-24
2021/07/13 03:28:27;;;;;;;3.20;2.50;;;24.80;75.30;;;;;;5145635;27;20759;-25
2021/07/13 03:30:59;;;;;;;3.13;2.80;;;24.60;76.10;;;;;;5145063;27;20469;-26
2021/07/13 03:33:32;;;;;;;4.20;2.87;;;24.50;76.70;;;;;;5131747;27;20456;-26
2021/07/13 03:36:05;;;;;;;4.43;3.07;;;24.40;77.50;;;;;;5144840;27;20491;-24
2021/07/13 03:38:36;;;;;;;3.07;2.77;;;24.20;78.30;;;;;;5144894;27;20567;-26
2021/07/13 03:41:08;;;;;;;4.47;2.23;;;24.20;78.20;;;;;;5146324;27;20520;-27
2021/07/13 03:43:39;;;;;;;7.00;2.80;;;24.00;78.70;;;;;;5144763;27;20477;-26
2021/07/13 03:46:10;;;;;;;8.70;3.20;;;23.80;80.00;;;;;;5145538;27;20512;-25
2021/07/13 03:48:44;;;;;;;3.60;3.00;;;23.70;80.70;;;;;;5144284;27;20480;-27
2021/07/13 03:51:23;;;;;;;6.50;3.30;;;23.60;81.20;;;;;;5149624;27;20513;-25
2021/07/13 03:53:54;;;;;;;2.60;2.20;;;23.60;81.30;;;;;;5143342;27;20503;-25
2021/07/13 03:56:25;;;;;;;4.27;2.97;;;23.40;81.90;;;;;;5145434;27;20512;-24
2021/07/13 03:58:56;;;;;;;3.40;3.07;;;23.30;82.80;;;;;;5144957;27;20548;-25
2021/07/13 04:01:27;;;;;;;3.37;2.50;;;23.20;83.20;;;;;;5145424;27;21000;-27
2021/07/13 04:04:00;;;;;;;4.50;3.70;;;23.10;83.40;;;;;;5144265;27;20459;-22
2021/07/13 04:06:33;;;;;;;4.90;2.77;;;23.00;83.80;;;;;;5145413;27;20512;-24
2021/07/13 04:09:07;;;;;;;3.33;2.70;;;22.90;84.40;;;;;;5145230;27;20791;-23
2021/07/13 04:11:38;;;;;;;3.37;3.07;;;22.80;85.10;;;;;;5145420;27;20468;-23
2021/07/13 04:14:09;;;;;;;3.57;2.30;;;22.70;85.90;;;;;;5142596;27;20468;-26
2021/07/13 04:16:40;;;;;;;5.10;3.17;;;22.60;86.00;;;;;;5138031;27;20449;-23
2021/07/13 04:19:13;;;;;;;4.57;3.23;;;22.60;86.50;;;;;;5144797;27;20575;-26
2021/07/13 04:21:45;;;;;;;3.13;2.83;;;22.40;87.30;;;;;;5145049;27;20454;-24
2021/07/13 04:24:17;;;;;;;4.20;2.93;;;22.30;88.20;;;;;;5144109;27;20423;-24
2021/07/13 04:26:48;;;;;;;3.80;2.80;;;22.20;89.00;;;;;;5145350;27;20486;-22
2021/07/13 04:29:19;;;;;;;3.60;3.20;;;22.10;89.80;;;;;;5156338;27;20460;-24
2021/07/13 04:31:50;;;;;;;2.80;2.40;;;22.00;89.80;;;;;;5144359;27;20558;-22
2021/07/13 04:34:23;;;;;;;5.80;3.00;;;22.00;89.90;;;;;;5146279;27;20491;-26
2021/07/13 04:36:54;;;;;;;3.27;2.73;;;21.90;90.30;;;;;;5147260;27;20515;-25
2021/07/13 04:39:25;;;;;;;3.40;2.70;;;21.90;90.40;;;;;;5143848;27;20556;-23
2021/07/13 04:42:18;;;;;;;4.00;2.63;;;21.70;91.10;;;;;;5144617;27;20430;-24
2021/07/13 04:44:53;;;;;;;3.70;2.90;;;21.60;91.30;;;;;;5144473;27;20427;-27
2021/07/13 04:47:24;;;;;;;3.60;2.50;;;21.50;91.80;;;;;;5145148;27;20448;-23
2021/07/13 04:49:56;;;;;;;3.97;3.20;;;21.40;92.00;;;;;;5144223;27;20415;-25
2021/07/13 04:52:27;;;;;;;3.00;2.70;;;21.30;92.30;;;;;;5144493;27;20452;-26
2021/07/13 04:54:59;;;;;;;3.50;2.77;;;21.30;92.60;;;;;;5143893;27;20448;-25
2021/07/13 04:57:30;;;;;;;4.07;2.50;;;21.10;93.40;;;;;;5142286;27;20500;-24
2021/07/13 05:00:01;;;;;;;3.93;2.83;;;21.10;93.70;;;;;;5142904;27;20481;-28
2021/07/13 05:02:32;;;;;;;4.60;3.73;;;20.90;94.20;;;;;;5142515;28;20507;-24
2021/07/13 05:05:06;;;;;;;3.70;2.90;;;20.90;94.50;;;;;;5140000;28;20445;-27
2021/07/13 05:07:40;;;;;;;4.60;3.60;;;20.80;94.80;;;;;;5143772;27;20445;-25
2021/07/13 05:10:13;;;;;;;3.87;3.43;;;20.70;95.60;;;;;;5144385;27;20458;-24
2021/07/13 05:12:45;;;;;;;4.07;3.27;;;20.70;96.10;;;;;;5144108;27;20474;-24
2021/07/13 05:15:17;;;;;;;6.70;3.07;;;20.50;96.70;;;;;;5127979;28;20450;-23
2021/07/13 05:17:48;;;;;;;3.70;2.60;;;20.40;97.20;;;;;;5144546;27;20578;-23
2021/07/13 05:20:21;;;;;;;6.63;3.33;;;20.30;97.90;;;;;;5144245;27;20480;-26
2021/07/13 05:22:57;;;;;;;7.20;3.13;;;20.30;98.10;;;;;;5144519;27;20459;-27
2021/07/13 05:25:32;;;;;;;3.70;2.77;;;20.30;98.40;;;;;;5129433;28;20439;-26
2021/07/13 05:28:04;;;;;;;3.80;3.20;;;20.20;99.20;;;;;;5143906;28;20527;-24
2021/07/13 05:30:35;;;;;;;4.17;2.80;;;20.10;99.60;;;;;;5144463;27;20436;-23
2021/07/13 05:33:06;;;;;;;8.50;4.23;;;20.00;99.90;;;;;;5144672;27;20484;-22
2021/07/13 05:35:42;;;;;;;5.10;2.93;;;19.90;99.90;;;;;;5128571;28;20416;-27
2021/07/13 05:38:13;;;;;;;6.83;3.40;;;19.80;99.90;;;;;;5144423;28;20791;-23
2021/07/13 05:40:46;;;;;;;2.63;2.43;;;19.60;99.90;;;;;;5144427;27;20452;-26
2021/07/13 05:43:18;;;;;;;4.43;3.43;;;19.60;99.90;;;;;;5143443;27;20448;-23
2021/07/13 05:45:50;;;;;;;6.57;3.57;;;19.50;99.90;;;;;;5144093;28;20804;-23
2021/07/13 05:48:21;;;;;;;3.33;3.03;;;19.50;99.90;;;;;;5144633;27;20896;-23
2021/07/13 05:50:54;;;;;;;3.07;2.70;;;19.40;99.90;;;;;;5144012;27;20472;-23
2021/07/13 05:53:24;;;;;;;4.00;3.63;;;19.30;99.90;;;;;;5140433;28;20456;-25
2021/07/13 05:55:55;;;;;;;4.80;3.47;;;19.30;99.90;;;;;;5143603;27;20474;-25
2021/07/13 05:58:26;;;;;;;6.37;3.47;;;19.20;99.90;;;;;;5143291;27;20448;-25
2021/07/13 06:00:57;;;;;;;4.73;2.80;;;19.20;99.90;;;;;;5142438;27;20542;-24
2021/07/13 06:03:28;;;;;;;4.53;3.50;;;19.10;99.90;;;;;;5128145;28;20501;-22
2021/07/13 06:06:04;;;;;;;6.17;2.80;;;19.00;99.90;;;;;;5143120;28;20477;-25
2021/07/13 06:08:37;;;;;;;3.73;3.20;;;18.90;99.90;;;;;;5143529;27;20513;-26
2021/07/13 06:11:08;;;;;;;4.90;3.00;;;18.80;99.90;;;;;;5143519;28;20498;-24
2021/07/13 06:13:39;;;;;;;5.57;3.50;;;18.70;99.90;;;;;;5131565;28;20419;-22
2021/07/13 06:16:10;;;;;;;5.33;3.37;;;18.70;99.90;;;;;;5144006;27;20449;-23
2021/07/13 06:18:41;;;;;;;3.97;3.07;;;18.60;99.90;;;;;;5148001;27;21070;-24
2021/07/13 06:21:14;;;;;;;4.87;3.23;;;18.60;99.90;;;;;;5147363;27;20415;-23
2021/07/13 06:23:44;;;;;;;3.97;3.43;;;18.60;99.90;;;;;;5147237;27;20444;-23
2021/07/13 06:26:18;;;;;;;4.73;3.13;;;18.50;99.90;;;;;;5147464;27;20453;-24
2021/07/13 06:28:49;;;;;;;4.97;3.60;;;18.50;99.90;;;;;;5137603;27;20485;-24
2021/07/13 06:31:27;;;;;;;4.53;3.10;;;18.40;99.90;;;;;;5145554;27;20441;-26
2021/07/13 06:33:58;;;;;;;4.43;2.50;;;18.40;99.90;;;;;;5147534;27;20441;-27
2021/07/13 06:36:30;;;;;;;3.53;3.03;;;18.20;99.90;;;;;;5147237;27;20450;-23
2021/07/13 06:39:01;;;;;;;4.17;2.83;;;18.20;99.90;;;;;;5146603;27;20468;-22
2021/07/13 06:41:32;;;;;;;3.63;2.83;;;18.10;99.90;;;;;;5145536;27;20498;-24
2021/07/13 06:44:04;;;;;;;2.93;2.63;;;18.10;99.90;;;;;;5146356;27;20459;-22
2021/07/13 06:46:35;;;;;;;4.03;3.13;;;18.10;99.90;;;;;;5146676;27;20893;-26
2021/07/13 06:49:07;;;;;;;5.97;2.57;;;18.00;99.90;;;;;;5147384;27;20563;-23
2021/07/13 06:51:40;;;;;;;3.93;2.93;;;18.00;99.90;;;;;;5146730;27;20470;-25
2021/07/13 06:54:11;;;;;;;3.60;2.70;;;17.80;99.90;;;;;;5146930;27;20420;-24
2021/07/13 06:56:42;;;;;;;5.90;3.03;;;17.80;99.90;;;;;;5146879;27;20456;-24
2021/07/13 06:59:13;;;;;;;4.53;3.60;;;17.70;99.90;;;;;;5146435;27;20844;-23
2021/07/13 07:01:44;;;;;;;5.50;3.60;;;17.70;99.90;;;;;;5147103;27;20441;-24
2021/07/13 07:04:22;;;;;;;4.37;3.30;;;17.60;99.90;;;;;;5147340;27;20469;-23
2021/07/13 07:06:54;;;;;;;6.13;3.70;;;17.60;99.90;;;;;;5131303;27;20820;-22
2021/07/13 07:09:25;;;;;;;6.07;3.80;;;17.50;99.90;;;;;;5146632;27;20453;-24
2021/07/13 07:11:56;;;;;;;4.00;3.00;;;17.50;99.90;;;;;;5146680;27;20512;-26
2021/07/13 07:14:28;;;;;;;3.43;2.87;;;17.40;99.90;;;;;;5146172;27;20423;-23
2021/07/13 07:16:58;;;;;;;4.90;3.50;;;17.30;99.90;;;;;;5146348;27;20437;-25
2021/07/13 07:19:32;;;;;;;4.40;4.00;;;17.30;99.90;;;;;;5134614;27;20473;-23
2021/07/13 07:22:05;;;;;;;3.90;3.23;;;17.30;99.90;;;;;;5146167;27;20476;-23
2021/07/13 07:24:37;;;;;;;3.47;3.17;;;17.20;99.90;;;;;;5146311;27;20440;-23
2021/07/13 07:27:08;;;;;;;4.10;3.57;;;17.20;99.90;;;;;;5143876;27;20471;-24
2021/07/13 07:29:39;;;;;;;5.93;4.00;;;17.10;99.90;;;;;;5133226;27;20440;-23
2021/07/13 07:32:10;;;;;;;4.97;3.33;;;17.10;99.90;;;;;;5146184;27;20441;-24
2021/07/13 07:34:42;;;;;;;4.50;3.00;;;17.10;99.90;;;;;;5146817;27;20444;-23
2021/07/13 07:37:15;;;;;;;4.70;3.37;;;17.00;99.90;;;;;;5145627;27;20733;-25
2021/07/13 07:39:46;;;;;;;5.00;3.43;;;17.00;99.90;;;;;;5145815;27;20962;-24
2021/07/13 07:42:17;;;;;;;3.93;3.63;;;17.00;99.90;;;;;;5146134;27;20460;-25
2021/07/13 07:44:52;;;;;;;6.90;4.00;;;16.90;99.90;;;;;;5145570;27;20480;-25
2021/07/13 07:47:23;;;;;;;4.57;3.00;;;16.80;99.90;;;;;;5145567;27;20459;-23
2021/07/13 07:49:54;;;;;;;4.63;2.80;;;16.90;99.90;;;;;;5146429;27;20467;-24
2021/07/13 07:52:30;;;;;;;3.80;3.40;;;16.80;99.90;;;;;;5145676;27;20480;-25
2021/07/13 07:55:01;;;;;;;4.30;2.90;;;16.70;99.90;;;;;;5134024;27;20808;-22
2021/07/13 07:57:32;;;;;;;4.17;3.23;;;16.70;99.90;;;;;;5144907;27;20448;-23
2021/07/13 08:00:07;;;;;;;6.53;3.63;;;16.70;99.90;;;;;;5145650;27;20477;-25
2021/07/13 08:02:38;;;;;;;4.90;3.07;;;16.60;99.90;;;;;;5130041;27;20500;-26
2021/07/13 08:05:10;;;;;;;4.37;3.23;;;16.60;99.90;;;;;;5145945;27;20465;-26
2021/07/13 08:07:43;;;;;;;4.20;3.20;;;16.60;99.90;;;;;;5145278;27;20456;-24
2021/07/13 08:10:16;;;;;;;5.30;3.00;;;16.60;99.90;;;;;;5145350;27;20775;-23
2021/07/13 08:12:47;;;;;;;5.63;3.30;;;16.60;99.90;;;;;;5144743;27;20460;-24
2021/07/13 08:15:18;;;;;;;4.07;3.20;;;16.60;99.90;;;;;;5145776;27;20476;-25
2021/07/13 08:17:49;;;;;;;3.93;3.07;;;16.50;99.90;;;;;;5145413;27;20472;-24
2021/07/13 08:20:21;;;;;;;5.47;3.53;;;16.50;99.90;;;;;;5145369;27;20495;-23
2021/07/13 08:22:53;;;;;;;3.37;2.93;;;16.40;99.90;;;;;;5145230;27;20484;-23
2021/07/13 08:25:24;;;;;;;3.57;3.00;;;16.40;99.90;;;;;;5145532;27;21030;-24
2021/07/13 08:27:55;;;;;;;7.30;3.93;;;16.40;99.90;;;;;;5142875;27;20444;-23
2021/07/13 08:30:27;;;;;;;4.00;3.13;;;16.30;99.90;;;;;;5143526;27;20441;-23
2021/07/13 08:33:01;;;;;;;3.30;2.63;;;16.30;99.90;;;;;;5145482;27;20425;-22
2021/07/13 08:35:41;;;;;;;5.67;2.60;;;16.30;99.90;;;;;;5145536;27;20452;-22
2021/07/13 08:38:14;;;;;;;3.63;3.10;;;16.20;99.90;;;;;;5144525;27;20974;-22
2021/07/13 08:40:48;;;;;;;5.30;3.53;;;16.20;99.90;;;;;;5140723;27;20476;-24
2021/07/13 08:43:21;;;;;;;3.80;3.40;;;16.10;99.90;;;;;;5143789;27;20457;-23
2021/07/13 08:45:54;;;;;;;8.23;3.70;;;16.20;99.90;;;;;;5144875;27;20465;-22
2021/07/13 08:48:28;;;;;;;6.70;3.53;;;16.10;99.90;;;;;;5144652;27;20510;-23
2021/07/13 08:51:03;;;;;;;4.30;3.10;;;16.10;99.90;;;;;;5144126;27;20441;-24
2021/07/13 08:53:36;;;;;;;5.70;3.60;;;16.10;99.90;;;;;;5144614;27;20476;-25
2021/07/13 08:56:07;;;;;;;3.87;2.73;;;16.10;99.90;;;;;;5144365;27;20479;-22
2021/07/13 08:58:41;;;;;;;4.50;3.40;;;16.00;99.90;;;;;;5143763;27;20449;-23
2021/07/13 09:01:12;;;;;;;6.10;3.60;;;15.90;99.90;;;;;;5144144;27;20495;-23
2021/07/13 09:03:55;;;;;;;6.80;3.73;;;16.00;99.90;;;;;;5144913;27;20459;-23
2021/07/13 09:06:27;;;;;;;5.23;3.53;;;16.00;99.90;;;;;;5144998;27;20455;-23
2021/07/13 09:09:02;;;;;;;5.23;2.90;;;16.00;99.90;;;;;;5144546;27;20558;-22
2021/07/13 09:11:34;;;;;;;5.33;3.30;;;15.90;99.90;;;;;;5144798;27;20511;-28
2021/07/13 09:14:05;;;;;;;5.70;2.97;;;15.80;99.90;;;;;;5144299;27;20453;-22
2021/07/13 09:16:39;;;;;;;6.73;3.50;;;15.80;99.90;;;;;;5144602;27;20936;-24
2021/07/13 09:19:11;;;;;;;3.37;3.07;;;15.80;99.90;;;;;;5133773;28;20562;-23
2021/07/13 09:21:44;;;;;;;4.50;3.77;;;15.80;99.90;;;;;;5144630;28;20488;-22
2021/07/13 09:24:21;;;;;;;3.57;3.20;;;15.80;99.90;;;;;;5145006;27;20441;-23
2021/07/13 09:26:53;;;;;;;3.87;3.10;;;15.80;99.90;;;;;;5144413;28;20449;-22
2021/07/13 09:29:36;;;;;;;8.00;4.10;;;15.70;99.90;;;;;;5143454;27;20449;-22
2021/07/13 09:32:27;;;;;;;5.13;3.10;;;15.60;99.90;;;;;;5144773;27;20448;-23
2021/07/13 09:35:00;;;;;;;5.30;3.63;;;15.60;99.90;;;;;;5144445;27;20821;-24
2021/07/13 09:37:33;;;;;;;7.93;3.53;;;15.70;99.90;;;;;;5144194;27;20453;-24
2021/07/13 09:40:13;;;;;;;5.73;3.43;;;15.70;99.90;;;;;;5144068;28;20475;-22
2021/07/13 09:42:46;;;;;;;9.60;4.10;;;15.60;99.90;;;;;;5144007;27;20445;-24
2021/07/13 09:45:23;;;;;;;6.03;3.37;;;15.60;99.90;;;;;;5144452;27;20480;-22
2021/07/13 09:47:56;;;;;;;8.37;3.90;;;15.50;99.90;;;;;;5143753;28;20448;-22
2021/07/13 09:50:39;;;;;;;5.80;3.30;;;15.50;99.90;;;;;;5145061;27;20509;-25
2021/07/13 09:53:15;;;;;;;6.53;3.90;;;15.50;99.90;;;;;;5147450;27;20476;-21
2021/07/13 09:55:48;;;;;;;4.67;3.37;;;15.50;99.90;;;;;;5148458;27;20448;-26
2021/07/13 09:58:21;;;;;;;5.80;3.40;;;15.40;99.90;;;;;;5147135;27;20485;-22
2021/07/13 10:00:56;;;;;;;3.80;2.93;;;15.40;99.90;;;;;;5147358;27;20480;-23
2021/07/13 10:03:27;;;;;;;5.90;3.70;;;15.40;99.90;;;;;;5147978;27;20448;-25
2021/07/13 10:06:00;;;;;;;5.10;3.40;;;15.40;99.90;;;;;;5148420;27;20448;-23
2021/07/13 10:08:33;;;;;;;4.00;3.00;;;15.40;99.90;;;;;;5147566;27;20448;-25
2021/07/13 10:11:06;;;;;;;6.60;3.60;;;15.40;99.90;;;;;;5147811;27;20452;-24
2021/07/13 10:13:37;;;;;;;4.60;3.13;;;15.40;99.90;;;;;;5147343;27;20439;-22
2021/07/13 10:16:09;;;;;;;3.73;3.23;;;15.30;99.90;;;;;;5147859;27;20433;-24
2021/07/13 10:18:40;;;;;;;7.40;4.20;;;15.30;99.90;;;;;;5147252;27;20510;-23
2021/07/13 10:21:11;;;;;;;5.30;3.60;;;15.20;99.90;;;;;;5147451;27;20476;-23
2021/07/13 10:23:46;;;;;;;8.03;3.30;;;15.20;99.90;;;;;;5147397;27;20476;-23
2021/07/13 10:26:48;;;;;;;7.20;4.07;;;15.10;99.90;;;;;;5147241;27;20469;-22
2021/07/13 10:29:38;;;;;;;9.70;4.03;;;15.10;99.90;;;;;;5146669;27;20477;-23
2021/07/13 10:32:30;;;;;;;5.37;3.13;;;15.10;99.90;;;;;;5147158;27;20474;-22
2021/07/13 10:35:07;;;;;;;5.57;3.80;;;15.10;99.90;;;;;;5146652;27;20469;-22
2021/07/13 10:37:40;;;;;;;3.67;3.37;;;15.10;99.90;;;;;;5147044;27;20441;-22
2021/07/13 10:40:16;;;;;;;4.00;3.40;;;15.10;99.90;;;;;;5146926;27;20453;-26
2021/07/13 10:42:51;;;;;;;5.50;3.17;;;15.00;99.90;;;;;;5137812;27;20469;-22
2021/07/13 10:45:29;;;;;;;4.83;3.10;;;15.00;99.90;;;;;;5146246;27;20476;-22
2021/07/13 10:48:12;;;;;;;6.13;3.90;;;15.00;99.90;;;;;;5147007;27;20532;-22
2021/07/13 10:50:48;;;;;;;6.13;3.93;;;15.00;99.90;;;;;;5146652;27;20445;-21
2021/07/13 10:53:25;;;;;;;5.43;3.63;;;14.90;99.90;;;;;;5143756;27;20444;-21
2021/07/13 10:55:59;;;;;;;5.33;3.13;;;14.90;99.90;;;;;;5147213;27;20436;-26
2021/07/13 10:58:47;;;;;;;8.63;3.83;;;14.80;99.90;;;;;;5146152;27;20448;-25
2021/07/13 11:01:27;;;;;;;6.27;3.33;;;14.80;99.90;;;;;;5146658;27;20480;-22
2021/07/13 11:04:25;;;;;;;5.43;4.00;;;14.80;99.90;;;;;;5130845;27;20489;-21
2021/07/13 11:07:00;;;;;;;6.43;3.80;;;14.80;99.90;;;;;;5147055;27;20452;-22
2021/07/13 11:09:36;;;;;;;7.10;3.70;;;14.80;99.90;;;;;;5146139;27;20476;-22
2021/07/13 11:12:20;;;;;;;7.97;3.37;;;14.80;99.90;;;;;;5147057;27;20456;-25
2021/07/13 11:15:04;;;;;;;6.77;3.63;;;14.70;99.90;;;;;;5146609;27;20517;-25
2021/07/13 11:17:37;;;;;;;10.70;4.00;;;14.80;99.90;;;;;;5145004;27;20467;-22
2021/07/13 11:20:14;;;;;;;6.20;3.80;;;14.80;99.90;;;;;;5146821;27;20451;-24
2021/07/13 11:22:45;;;;;;;5.00;3.73;;;14.70;99.90;;;;;;5146331;27;20503;-21
2021/07/13 11:25:30;;;;;;;6.13;3.87;;;14.70;99.90;;;;;;5146849;27;20574;-22
2021/07/13 11:28:06;;;;;;;6.40;3.57;;;14.60;99.90;;;;;;5130467;27;20469;-22
2021/07/13 11:30:39;;;;;;;5.47;3.67;;;14.60;99.90;;;;;;5146152;27;20476;-22
2021/07/13 11:33:11;;;;;;;5.80;3.80;;;14.60;99.90;;;;;;5146293;27;20573;-23
2021/07/13 11:35:54;;;;;;;4.77;3.67;;;14.60;99.90;;;;;;5146261;27;20470;-23
2021/07/13 11:38:28;;;;;;;4.83;3.63;;;14.60;99.90;;;;;;5146308;27;20799;-21
2021/07/13 11:41:12;;;;;;;7.00;4.10;;;14.50;99.90;;;;;;5145553;27;20445;-24
2021/07/13 11:43:43;;;;;;;7.70;3.70;;;14.60;99.90;;;;;;5145596;27;20481;-21
2021/07/13 11:46:18;;;;;;;6.93;3.57;;;14.50;99.90;;;;;;5146105;27;20484;-23
2021/07/13 11:48:59;;;;;;;6.80;3.70;;;14.50;99.90;;;;;;5145702;27;20444;-24
2021/07/13 11:51:37;;;;;;;7.40;3.90;;;14.50;99.90;;;;;;5145801;27;20441;-24
2021/07/13 11:54:13;;;;;;;4.53;3.60;;;14.50;99.90;;;;;;5132968;27;20489;-22
2021/07/13 11:56:46;;;;;;;8.13;3.83;;;14.50;99.90;;;;;;5146145;27;20500;-23
2021/07/13 11:59:21;;;;;;;7.13;4.50;;;14.50;99.90;;;;;;5145493;27;20449;-22
2021/07/13 12:01:55;;;;;;;6.10;3.70;;;14.40;99.90;;;;;;5145452;27;20516;-23
2021/07/13 12:04:28;;;;;;;8.10;4.00;;;14.40;99.90;;;;;;5128793;27;20516;-23
2021/07/13 12:07:00;;;;;;;5.83;3.97;;;14.50;99.90;;;;;;5145550;27;20449;-21
2021/07/13 12:09:35;;;;;;;9.83;4.13;;;14.40;99.90;;;;;;5145201;27;20849;-22
2021/07/13 12:12:08;;;;;;;6.00;3.40;;;14.40;99.90;;;;;;5145638;27;20444;-21
2021/07/13 12:14:43;;;;;;;8.80;4.60;;;14.40;99.90;;;;;;5144533;27;20450;-21
2021/07/13 12:17:16;;;;;;;6.80;3.70;;;14.30;99.90;;;;;;5145557;27;20477;-22
2021/07/13 12:19:48;;;;;;;9.07;4.40;;;14.40;99.90;;;;;;5145131;27;20452;-25
2021/07/13 12:22:22;;;;;;;6.43;4.27;;;14.30;99.90;;;;;;5145340;27;20500;-26
2021/07/13 12:25:05;;;;;;;5.60;4.20;;;14.30;99.90;;;;;;5145162;27;20470;-21
2021/07/13 12:27:38;;;;;;;4.70;3.20;;;14.30;99.90;;;;;;5144805;27;20433;-23
2021/07/13 12:30:14;;;;;;;4.07;3.63;;;14.30;99.90;;;;;;5145334;27;20996;-21
2021/07/13 12:33:02;;;;;;;6.57;3.77;;;14.30;99.90;;;;;;5145022;27;20455;-21
2021/07/13 12:35:34;;;;;;;5.30;4.00;;;14.20;99.90;;;;;;5131503;27;20812;-22
2021/07/13 12:38:11;;;;;;;6.67;3.63;;;14.30;99.90;;;;;;5145172;27;20453;-23
2021/07/13 12:40:42;;;;;;;9.37;4.63;;;14.30;99.90;;;;;;5145074;27;20463;-23
2021/07/13 12:43:18;;;;;;;5.93;4.30;;;14.30;99.90;;;;;;5133397;27;20487;-21
2021/07/13 12:45:51;;;;;;;6.23;4.67;;;14.30;99.90;;;;;;5144484;27;20586;-22
2021/07/13 12:48:36;;;;;;;6.90;4.67;;;14.20;99.90;;;;;;5144804;27;20441;-22
2021/07/13 12:51:07;;;;;;;10.30;5.10;;;14.30;99.90;;;;;;5144350;27;20448;-23
2021/07/13 12:53:38;;;;;;;7.33;4.83;;;14.30;99.90;;;;;;5144430;27;20930;-22
2021/07/13 12:56:12;;;;;;;7.17;4.00;;;14.30;99.90;;;;;;5144964;27;20453;-21
2021/07/13 12:58:43;;;;;;;8.80;3.87;;;14.40;99.90;;;;;;5144184;27;20471;-25
2021/07/13 13:01:16;;;;;;;6.10;4.20;;;14.40;99.90;;;;;;5144542;27;20484;-22
2021/07/13 13:03:49;;;;;;;9.37;5.20;;;14.50;99.90;;;;;;5145073;27;20468;-24
2021/07/13 13:06:24;;;;;;;6.10;3.97;;;14.60;99.90;;;;;;5144824;28;20892;-22
2021/07/13 13:08:55;;;;;;;9.63;4.87;;;14.70;99.90;;;;;;5144082;28;20444;-22
2021/07/13 13:11:36;;;;;;;8.23;4.70;;;14.70;99.90;;;;;;5144212;28;20444;-22
2021/07/13 13:14:12;;;;;;;9.43;4.30;;;14.90;99.90;;;;;;5144168;27;20509;-23
2021/07/13 13:16:48;;;;;;;7.67;4.90;;;15.00;99.90;;;;;;5144890;27;20452;-22
2021/07/13 13:19:28;;;;;;;8.73;5.30;;;15.00;99.90;;;;;;5133113;28;20530;-20
2021/07/13 13:21:59;;;;;;;7.67;4.97;;;15.10;99.90;;;;;;5144468;28;20437;-24